ASN logo
ASN Wikibase Occurrence # 201104
Last updated: 17 November 2017
This information is added by users of ASN. Neither ASN nor the Flight Safety Foundation are responsible for the completeness or correctness of this information. If you feel this information is incomplete or incorrect, you can submit corrected information.

Date:08-NOV-2017
Time:ca 20:12 LT
Type:Silhouette image of generic DH8D model; specific model in this crash may look slightly different
de Havilland Canada DHC-8-402Q Dash 8
Owner/operator:SpiceJet
Registration: VT-SUL
C/n / msn: 4400
Fatalities:Fatalities: 0 / Occupants:
Other fatalities:0
Airplane damage: Minor
Location:Delhi-Indira Gandhi International Airport (DEL/VIDP) -   India
Phase: Landing
Nature:Domestic Scheduled Passenger
Departure airport:Jabalpur Airport (JLR/VAJB)
Destination airport:Delhi-Indira Gandhi International Airport (DEL/VIDP)
Narrative:
The plane, flight SG2642, sustained a tail strike upon landing. There were no personal injuries.

The incident happened in nighttime, low visibility conditions. Visibility was reported being 400 meters, ten minutes before landing. Runway 28 RVR was 1300 meters, Runway 29 RVR was 1200 meters.
The haze originated from crop fires in the area.

Weather reported about the incident time (14:42Z):
VIDP 081400Z 00000KT 0400 R28/1300 R29/1000 FU NSC 22/16 Q1013 BECMG 0350 FG
>> VIDP 081430Z 00000KT 0400 R28/1300 R29/1200 FU NSC 21/16 Q1014 BECMG 0350 FG
VIDP 081500Z 00000KT 0400 R28/1300 R29/1100 FU NSC 21/16 Q1014 BECMG 0350 FG

Sources:

http://www.hindustantimes.com/delhi-news/scary-landing-for-spicejet-passengers-as-plane-scrapes-runway-at-delhi-airport/story-n7ArIqsbP71Pzv8K74NlSJ.html


Revision history:

Date/timeContributorUpdates
09-Nov-2017 07:06 gerard57 Added
09-Nov-2017 07:08 harro Updated [Time, Aircraft type, Cn, Operator, Location, Departure airport, Destination airport, Narrative]
09-Nov-2017 11:03 harro Updated [Narrative]
09-Nov-2017 11:34 Iceman 29 Updated [Embed code]

Corrections or additions? ... Edit this accident description